Jonquiere, Canada
Current Conditions -  °F | °C
As of 7:00 AM on Monday 20 Oct 2014 (Local Time) from CYBG Reporting Station
Overcast Overcast  
Wind Chill: 30°   Ceiling: 3000
Heat Index: 36°   Visibility: 15mi
Dew Point: 27°   Wind: 7mph
Humidity: 70%   Direction: 270°W
Pressure: 29.83"   Gusts: NA
Location:  48.41°N, 71.25°W
Report Text: CYBG 201100Z 27006KT 15SM OVC030 02/M03 A2983 RMK SC8 SLP109
Loading
Personal Weather Stations






























Interactive Weather Map
Tropical Storm Tracking
New forecast layout! Learn more

10-Day Weather Forecast

Advertisements
Track Severe Weather on mobile